Time;durP1;ratioP1;P1;durP2;ratioP2;P2;SDS_P1;SDS_P2;PMS_P1;PMS_P2;Temp;Humidity;BMP_temperature;BMP_pressure;BME280_temperature;BME280_humidity;BME280_pressure;Samples;Min_cycle;Max_cycle;Signal;HPM_P1;HPM_P2
2021/08/17 00:02:03;;;;;;;14.93;7.70;;;716.80;1152.00;;;;;;5095077;28;20042;-70
2021/08/17 00:04:35;;;;;;;15.65;8.32;;;716.80;1152.00;;;;;;5094795;28;20127;-70
2021/08/17 00:07:07;;;;;;;13.50;7.82;;;716.80;1152.00;;;;;;5094884;28;20055;-70
2021/08/17 00:09:38;;;;;;;13.05;8.02;;;716.80;1152.00;;;;;;5094856;28;20020;-70
2021/08/17 00:12:12;;;;;;;12.65;7.90;;;692.10;1126.40;;;;;;5095015;28;20440;-70
2021/08/17 00:14:44;;;;;;;10.52;7.57;;;692.00;1126.40;;;;;;5095020;28;20028;-70
2021/08/17 00:17:16;;;;;;;12.70;7.72;;;692.00;1126.40;;;;;;5094744;28;20024;-70
2021/08/17 00:19:49;;;;;;;13.00;7.95;;;692.00;1126.40;;;;;;5094590;28;20061;-71
2021/08/17 00:22:22;;;;;;;;;;;692.00;1126.40;;;;;;5094869;28;20024;-68
2021/08/17 00:24:55;;;;;;;15.55;7.40;;;691.90;1126.40;;;;;;5094737;28;19904;-70
2021/08/17 00:27:26;;;;;;;12.07;7.75;;;691.90;1152.00;;;;;;5094698;28;20032;-70
2021/08/17 00:29:57;;;;;;;16.90;7.88;;;691.90;1152.00;;;;;;5094473;28;20024;-70
2021/08/17 00:32:29;;;;;;;12.82;7.53;;;691.80;1152.00;;;;;;5094323;28;20458;-70
2021/08/17 00:35:01;;;;;;;15.05;8.02;;;691.80;1152.00;;;;;;5094606;28;20034;-70
2021/08/17 00:37:33;;;;;;;18.70;7.30;;;691.90;1152.00;;;;;;5094266;28;20046;-70
2021/08/17 00:40:06;;;;;;;15.55;7.60;;;691.80;1152.00;;;;;;5094181;28;20093;-70
2021/08/17 00:42:46;;;;;;;18.25;7.70;;;691.80;1177.60;;;;;;5094273;28;20020;-70
2021/08/17 00:45:31;;;;;;;16.13;8.55;;;691.80;1177.60;;;;;;5093431;28;20046;-70
2021/08/17 00:48:03;;;;;;;13.40;8.18;;;691.70;1177.60;;;;;;5094375;28;20040;-70
2021/08/17 00:50:36;;;;;;;11.90;8.02;;;691.80;1177.60;;;;;;5094193;28;20020;-70
2021/08/17 00:53:07;;;;;;;14.18;7.82;;;691.70;1177.60;;;;;;5094079;28;20154;-69
2021/08/17 00:55:42;;;;;;;12.75;7.93;;;691.70;1203.20;;;;;;5094268;28;20016;-70
2021/08/17 00:58:13;;;;;;;21.48;7.88;;;691.70;1203.20;;;;;;5094153;28;20032;-70
2021/08/17 01:00:49;;;;;;;13.18;8.60;;;691.60;1203.20;;;;;;5092767;28;20377;-70
2021/08/17 01:03:21;;;;;;;13.43;8.52;;;691.70;1203.20;;;;;;5094068;28;20423;-70
2021/08/17 01:05:52;;;;;;;11.02;7.85;;;691.50;1228.80;;;;;;5093594;28;20101;-70
2021/08/17 01:08:24;;;;;;;15.10;8.55;;;691.50;1228.80;;;;;;5092351;28;20040;-70
2021/08/17 01:10:57;;;;;;;13.00;8.45;;;691.40;1228.80;;;;;;5094050;28;20024;-70
2021/08/17 01:13:28;;;;;;;15.02;7.65;;;691.50;1254.40;;;;;;5094049;28;20021;-70
2021/08/17 01:16:02;;;;;;;13.95;7.47;;;691.50;1254.40;;;;;;5093990;28;20026;-70
2021/08/17 01:18:34;;;;;;;12.55;8.48;;;691.40;1254.40;;;;;;5094045;28;20026;-70
2021/08/17 01:21:08;;;;;;;14.88;8.52;;;691.40;1280.00;;;;;;5093700;28;20099;-70
2021/08/17 01:23:36;;;;;;;;;;;691.30;1280.00;;;;;;5094214;28;20032;-70
2021/08/17 01:26:08;;;;;;;17.25;9.23;;;691.30;1305.60;;;;;;5093916;28;19904;-69
2021/08/17 01:28:40;;;;;;;26.63;8.52;;;691.20;1280.00;;;;;;5093272;28;20042;-70
2021/08/17 01:31:12;;;;;;;15.82;7.97;;;691.30;1228.80;;;;;;5093515;28;20028;-70
2021/08/17 01:33:43;;;;;;;14.77;8.32;;;691.40;1228.80;;;;;;5093763;28;20031;-70
2021/08/17 01:36:15;;;;;;;14.82;8.43;;;691.30;1228.80;;;;;;5093680;28;20032;-71
2021/08/17 01:38:54;;;;;;;17.38;7.95;;;691.40;1228.80;;;;;;5093615;28;20094;-70
2021/08/17 01:41:26;;;;;;;17.67;8.27;;;691.40;1228.80;;;;;;5093649;28;20119;-70
2021/08/17 01:43:57;;;;;;;15.48;8.88;;;691.40;1228.80;;;;;;5093672;28;20032;-70
2021/08/17 01:46:31;;;;;;;17.50;9.48;;;691.40;1228.80;;;;;;5093695;28;20052;-70
2021/08/17 01:49:00;;;;;;;;;;;691.40;1254.40;;;;;;5093815;28;20477;-69
2021/08/17 01:51:31;;;;;;;20.05;9.05;;;691.40;1254.40;;;;;;5093506;28;19947;-70
2021/08/17 01:54:10;;;;;;;16.63;9.13;;;691.40;1254.40;;;;;;5093160;28;20024;-70
2021/08/17 01:56:42;;;;;;;15.80;9.13;;;691.40;1254.40;;;;;;5096259;28;20072;-70
2021/08/17 01:59:16;;;;;;;17.05;8.55;;;691.40;1254.40;;;;;;5096101;28;20106;-69
2021/08/17 02:01:45;;;;;;;;;;;691.40;1254.40;;;;;;5097848;28;20024;-70
2021/08/17 02:04:16;;;;;;;14.55;8.52;;;691.30;1280.00;;;;;;5097160;28;19908;-70
2021/08/17 02:06:48;;;;;;;21.10;7.95;;;691.30;1254.40;;;;;;5097055;28;20040;-70
2021/08/17 02:09:19;;;;;;;19.80;8.43;;;691.30;1254.40;;;;;;5097339;28;20027;-70
2021/08/17 02:11:51;;;;;;;14.57;7.97;;;691.40;1254.40;;;;;;5097087;28;20035;-70
2021/08/17 02:14:25;;;;;;;14.70;8.40;;;691.40;1254.40;;;;;;5097122;28;20031;-70
2021/08/17 02:16:56;;;;;;;15.07;8.05;;;691.40;1254.40;;;;;;5097125;28;20027;-70
2021/08/17 02:19:30;;;;;;;29.38;8.30;;;691.40;1280.00;;;;;;5097139;28;20106;-70
2021/08/17 02:22:05;;;;;;;35.50;7.25;;;691.30;1331.20;;;;;;5096895;28;20047;-70
2021/08/17 02:24:37;;;;;;;26.67;6.80;;;691.30;1356.80;;;;;;5096957;28;20470;-70
2021/08/17 02:27:09;;;;;;;22.58;5.50;;;691.30;1356.80;;;;;;5096944;28;20096;-70
2021/08/17 02:29:40;;;;;;;27.92;5.40;;;691.20;1382.40;;;;;;5096889;28;20154;-70
2021/08/17 02:32:14;;;;;;;33.33;5.93;;;691.20;1382.40;;;;;;5096737;28;20513;-70
2021/08/17 02:34:46;;;;;;;20.08;4.57;;;691.20;1382.40;;;;;;5097049;28;20378;-70
2021/08/17 02:37:18;;;;;;;21.05;4.63;;;691.20;1408.00;;;;;;5096523;28;20024;-70
2021/08/17 02:39:55;;;;;;;25.77;3.80;;;666.50;1408.00;;;;;;5095481;28;20393;-70
2021/08/17 02:42:30;;;;;;;22.58;4.10;;;666.40;1433.60;;;;;;5096405;28;20032;-70
2021/08/17 02:45:02;;;;;;;11.18;3.85;;;666.40;1433.60;;;;;;5096719;28;20099;-70
2021/08/17 02:47:34;;;;;;;22.63;4.00;;;666.40;1459.20;;;;;;5096695;28;20067;-71
2021/08/17 02:50:07;;;;;;;19.00;3.78;;;666.30;1459.20;;;;;;5096548;28;20040;-70
2021/08/17 02:52:34;;;;;;;11.63;3.80;;;666.20;1459.20;;;;;;5096547;28;20032;-69
2021/08/17 02:55:07;;;;;;;11.68;3.28;;;666.20;1459.20;;;;;;5096409;28;20072;-70
2021/08/17 02:57:50;;;;;;;11.10;3.25;;;666.10;1459.20;;;;;;5096212;28;20042;-70
2021/08/17 03:00:22;;;;;;;10.88;3.95;;;666.10;1484.80;;;;;;5096449;28;20366;-70
2021/08/17 03:02:56;;;;;;;18.42;3.70;;;666.00;1484.80;;;;;;5096385;28;20024;-70
2021/08/17 03:05:24;;;;;;;12.65;3.40;;;666.00;1484.80;;;;;;5095934;28;20043;-70
2021/08/17 03:08:03;;;;;;;12.45;3.10;;;666.10;1484.80;;;;;;5095009;28;20077;-70
2021/08/17 03:10:42;;;;;;;14.55;3.58;;;666.00;1484.80;;;;;;5096011;28;20031;-70
2021/08/17 03:13:13;;;;;;;13.07;3.08;;;666.00;1510.40;;;;;;5096086;28;20044;-70
2021/08/17 03:15:45;;;;;;;10.88;3.55;;;665.80;1510.40;;;;;;5096119;28;20024;-70
2021/08/17 03:18:17;;;;;;;11.05;3.00;;;665.80;1510.40;;;;;;5095936;28;20023;-73
2021/08/17 03:20:48;;;;;;;17.40;3.10;;;665.80;1536.00;;;;;;5095859;28;20055;-70
2021/08/17 03:23:18;;;;;;;9.07;3.00;;;665.80;1536.00;;;;;;5095499;28;20054;-70
2021/08/17 03:25:53;;;;;;;23.85;4.30;;;665.70;1536.00;;;;;;5096243;28;20038;-70
2021/08/17 03:28:25;;;;;;;15.15;3.20;;;665.80;1536.00;;;;;;5095830;28;20046;-70
2021/08/17 03:30:56;;;;;;;10.13;2.88;;;665.70;1561.60;;;;;;5095459;28;20020;-70
2021/08/17 03:33:25;;;;;;;7.07;3.13;;;665.70;1561.60;;;;;;5095878;28;20342;-70
2021/08/17 03:35:55;;;;;;;4.88;2.72;;;665.60;1561.60;;;;;;5095359;28;20028;-69
2021/08/17 03:38:21;;;;;;;8.68;3.13;;;640.90;1561.60;;;;;;5095445;28;20020;-69
2021/08/17 03:40:49;;;;;;;9.73;3.00;;;640.80;1561.60;;;;;;5095336;28;20426;-70
2021/08/17 03:43:21;;;;;;;12.45;2.92;;;640.80;1561.60;;;;;;5095194;28;20063;-69
2021/08/17 03:45:53;;;;;;;8.93;2.70;;;640.80;1561.60;;;;;;5095541;28;20023;-69
2021/08/17 03:48:25;;;;;;;5.68;2.72;;;640.70;1587.20;;;;;;5095487;28;20374;-70
2021/08/17 03:50:56;;;;;;;4.30;2.22;;;640.70;1587.20;;;;;;5095303;28;20504;-69
2021/08/17 03:53:28;;;;;;;7.38;2.15;;;640.60;1587.20;;;;;;5095486;28;20035;-69
2021/08/17 03:55:59;;;;;;;10.90;2.58;;;640.60;1587.20;;;;;;5095581;28;20016;-68
2021/08/17 03:58:33;;;;;;;10.73;2.60;;;640.60;1587.20;;;;;;5095307;28;20300;-69
2021/08/17 04:01:05;;;;;;;6.32;2.42;;;640.50;1612.80;;;;;;5095320;28;20031;-68
2021/08/17 04:03:36;;;;;;;8.77;2.30;;;640.50;1612.80;;;;;;5094982;28;20023;-68
2021/08/17 04:06:08;;;;;;;4.50;2.38;;;640.50;1587.20;;;;;;5093443;28;20036;-68
2021/08/17 04:08:39;;;;;;;7.65;2.03;;;640.40;1587.20;;;;;;5095011;28;20410;-69
2021/08/17 04:11:11;;;;;;;8.73;2.22;;;640.30;1587.20;;;;;;5094981;28;20050;-69
2021/08/17 04:13:43;;;;;;;17.75;2.22;;;640.30;1587.20;;;;;;5094711;28;20059;-69
2021/08/17 04:16:14;;;;;;;7.32;3.00;;;640.20;1561.60;;;;;;5094845;28;20028;-69
2021/08/17 04:18:45;;;;;;;5.85;1.90;;;640.10;1561.60;;;;;;5095009;28;20044;-69
2021/08/17 04:21:17;;;;;;;9.35;2.50;;;640.10;1561.60;;;;;;5094516;28;20035;-68
2021/08/17 04:23:49;;;;;;;4.40;2.40;;;640.00;1536.00;;;;;;5094575;28;20107;-69
2021/08/17 04:26:20;;;;;;;12.05;3.15;;;640.00;1536.00;;;;;;5094546;28;20028;-69
2021/08/17 04:28:52;;;;;;;5.47;2.33;;;640.00;1536.00;;;;;;5094401;28;20512;-69
2021/08/17 04:31:24;;;;;;;6.45;2.78;;;615.30;1510.40;;;;;;5094603;28;20028;-69
2021/08/17 04:33:56;;;;;;;7.78;3.05;;;615.30;1510.40;;;;;;5095067;28;20034;-68
2021/08/17 04:36:27;;;;;;;10.80;2.65;;;615.30;1510.40;;;;;;5094471;28;20023;-68
2021/08/17 04:38:58;;;;;;;10.15;2.65;;;615.20;1510.40;;;;;;5094651;28;20086;-69
2021/08/17 04:41:32;;;;;;;12.10;2.38;;;615.20;1484.80;;;;;;5092799;28;20508;-69
2021/08/17 04:44:01;;;;;;;;;;;615.20;1484.80;;;;;;5094828;28;20046;-68
2021/08/17 04:46:33;;;;;;;5.30;2.67;;;615.20;1459.20;;;;;;5094069;28;19904;-68
2021/08/17 04:49:06;;;;;;;13.45;3.58;;;615.10;1459.20;;;;;;5094497;28;20486;-69
2021/08/17 04:51:38;;;;;;;7.35;2.95;;;615.10;1459.20;;;;;;5094300;28;20031;-69
2021/08/17 04:54:09;;;;;;;7.43;3.53;;;615.20;1459.20;;;;;;5094256;28;20074;-69
2021/08/17 04:56:41;;;;;;;6.93;3.03;;;615.20;1433.60;;;;;;5094271;28;20024;-68
2021/08/17 04:59:12;;;;;;;8.27;3.90;;;615.20;1433.60;;;;;;5093987;28;20461;-69
2021/08/17 05:01:44;;;;;;;7.80;3.00;;;615.30;1433.60;;;;;;5094188;28;20081;-69
2021/08/17 05:04:16;;;;;;;8.57;3.45;;;615.20;1433.60;;;;;;5093807;28;20016;-69
2021/08/17 05:06:47;;;;;;;6.68;3.15;;;615.30;1433.60;;;;;;5093725;28;20107;-68
2021/08/17 05:09:18;;;;;;;11.27;3.72;;;615.30;1433.60;;;;;;5093905;28;20020;-69
2021/08/17 05:11:50;;;;;;;6.88;3.13;;;640.00;1433.60;;;;;;5093861;28;20024;-68
2021/08/17 05:14:21;;;;;;;6.22;3.00;;;640.00;1408.00;;;;;;5094000;28;20106;-68
2021/08/17 05:16:53;;;;;;;8.30;3.50;;;640.10;1408.00;;;;;;5093759;28;20440;-69
2021/08/17 05:19:25;;;;;;;6.65;3.20;;;640.10;1408.00;;;;;;5093960;28;20095;-68
2021/08/17 05:21:56;;;;;;;11.38;3.33;;;640.20;1408.00;;;;;;5093175;28;20084;-69
2021/08/17 05:24:30;;;;;;;11.35;3.42;;;640.30;1408.00;;;;;;5092022;28;20032;-68
2021/08/17 05:26:59;;;;;;;;;;;640.30;1408.00;;;;;;5094235;28;20029;-69
2021/08/17 05:29:33;;;;;;;12.82;2.90;;;640.30;1408.00;;;;;;5093747;28;19915;-69
2021/08/17 05:32:07;;;;;;;13.48;3.50;;;640.30;1408.00;;;;;;5093464;28;20115;-69
2021/08/17 05:34:35;;;;;;;;;;;640.20;1459.20;;;;;;5093731;28;20020;-69
2021/08/17 05:37:07;;;;;;;8.85;3.22;;;640.00;1510.40;;;;;;5093501;28;20364;-69
2021/08/17 05:39:38;;;;;;;9.80;3.42;;;615.30;1510.40;;;;;;5093774;28;20024;-69
2021/08/17 05:42:10;;;;;;;8.80;3.80;;;615.20;1536.00;;;;;;5093774;28;20106;-69
2021/08/17 05:44:43;;;;;;;12.60;4.05;;;615.00;1561.60;;;;;;5092203;28;20017;-70
2021/08/17 05:47:18;;;;;;;9.48;3.58;;;614.90;1587.20;;;;;;5093597;28;20081;-70
2021/08/17 05:49:50;;;;;;;8.30;3.60;;;614.90;1587.20;;;;;;5093869;28;20036;-70
2021/08/17 05:52:21;;;;;;;9.27;3.22;;;614.90;1612.80;;;;;;5093622;28;20024;-70
2021/08/17 05:54:52;;;;;;;8.13;4.03;;;614.70;1638.40;;;;;;5093561;28;20411;-71
2021/08/17 05:57:24;;;;;;;17.25;4.68;;;614.60;1638.40;;;;;;5093642;28;20103;-70
2021/08/17 05:59:56;;;;;;;8.15;3.45;;;614.60;1664.00;;;;;;5093447;28;20381;-70
2021/08/17 06:02:27;;;;;;;8.52;3.83;;;614.50;1638.40;;;;;;5093658;28;20065;-70
2021/08/17 06:04:58;;;;;;;8.80;3.88;;;614.50;1638.40;;;;;;5093496;28;20048;-70
2021/08/17 06:07:30;;;;;;;8.50;4.00;;;614.50;1638.40;;;;;;5093445;28;20046;-69
2021/08/17 06:10:02;;;;;;;6.97;3.78;;;614.50;1638.40;;;;;;5093616;28;20020;-70
2021/08/17 06:12:34;;;;;;;7.93;4.05;;;614.60;1638.40;;;;;;5093538;28;20016;-70
2021/08/17 06:15:06;;;;;;;8.75;3.92;;;614.60;1638.40;;;;;;5093353;28;20106;-70
2021/08/17 06:17:37;;;;;;;8.93;4.53;;;614.70;1638.40;;;;;;5093353;28;20024;-70
2021/08/17 06:20:12;;;;;;;9.25;4.18;;;614.70;1612.80;;;;;;5093681;28;20051;-70
2021/08/17 06:22:44;;;;;;;6.43;3.63;;;614.70;1638.40;;;;;;5093399;28;20481;-70
2021/08/17 06:25:18;;;;;;;5.80;3.83;;;614.70;1638.40;;;;;;5093715;28;20028;-69
2021/08/17 06:27:49;;;;;;;8.88;3.88;;;614.70;1612.80;;;;;;5092999;28;20032;-69
2021/08/17 06:30:21;;;;;;;7.15;3.78;;;614.80;1612.80;;;;;;5093169;28;20032;-69
2021/08/17 06:32:53;;;;;;;7.45;4.45;;;614.80;1612.80;;;;;;5093024;28;20025;-69
2021/08/17 06:35:25;;;;;;;7.55;4.75;;;614.90;1587.20;;;;;;5092989;28;20032;-69
2021/08/17 06:37:57;;;;;;;7.68;4.05;;;614.90;1587.20;;;;;;5093231;28;20044;-69
2021/08/17 06:40:28;;;;;;;5.20;3.20;;;614.90;1561.60;;;;;;5093172;28;20460;-69
2021/08/17 06:42:59;;;;;;;7.18;3.60;;;615.00;1536.00;;;;;;5094722;28;20020;-69
2021/08/17 06:45:31;;;;;;;7.57;4.18;;;615.20;1561.60;;;;;;5096941;28;20493;-69
2021/08/17 06:48:05;;;;;;;6.35;3.92;;;615.20;1561.60;;;;;;5095327;28;20044;-69
2021/08/17 06:50:37;;;;;;;6.57;3.83;;;615.30;1561.60;;;;;;5096522;28;20031;-69
2021/08/17 06:53:08;;;;;;;8.90;4.28;;;640.00;1510.40;;;;;;5096512;28;20108;-69
2021/08/17 06:55:40;;;;;;;7.05;3.75;;;640.20;1510.40;;;;;;5096715;28;20107;-69
2021/08/17 06:58:17;;;;;;;11.45;3.40;;;640.20;1484.80;;;;;;5096380;28;20461;-69
2021/08/17 07:00:50;;;;;;;8.18;3.20;;;640.30;1459.20;;;;;;5096524;28;20050;-69
2021/08/17 07:03:21;;;;;;;7.45;3.28;;;640.50;1433.60;;;;;;5096394;28;20042;-69
2021/08/17 07:05:54;;;;;;;8.38;3.10;;;640.90;1408.00;;;;;;5096098;28;20101;-69
2021/08/17 07:08:25;;;;;;;7.03;3.10;;;640.80;1356.80;;;;;;5096079;28;20550;-69
2021/08/17 07:10:56;;;;;;;5.95;3.30;;;665.80;1356.80;;;;;;5096325;28;20024;-69
2021/08/17 07:13:29;;;;;;;4.70;3.17;;;665.70;1356.80;;;;;;5095934;28;20030;-69
2021/08/17 07:16:00;;;;;;;9.02;3.20;;;665.70;1356.80;;;;;;5095931;28;20057;-69
2021/08/17 07:18:34;;;;;;;5.93;3.20;;;665.90;1331.20;;;;;;5096124;28;20031;-69
2021/08/17 07:21:06;;;;;;;7.22;3.17;;;666.00;1305.60;;;;;;5096026;28;20024;-69
2021/08/17 07:23:37;;;;;;;6.82;3.40;;;666.30;1305.60;;;;;;5095832;28;20093;-69
2021/08/17 07:26:09;;;;;;;8.32;3.08;;;666.30;1280.00;;;;;;5095911;28;20047;-69
2021/08/17 07:28:40;;;;;;;10.40;3.10;;;666.40;1254.40;;;;;;5095632;28;20042;-69
2021/08/17 07:31:12;;;;;;;13.55;3.20;;;691.20;1280.00;;;;;;5095983;28;20405;-69
2021/08/17 07:33:43;;;;;;;9.00;2.83;;;691.50;1228.80;;;;;;5095710;28;20050;-69
2021/08/17 07:36:17;;;;;;;14.02;3.20;;;691.70;1203.20;;;;;;5095397;28;20035;-70
2021/08/17 07:38:44;;;;;;;8.88;3.33;;;692.00;1177.60;;;;;;5095573;28;20481;-68
2021/08/17 07:41:09;;;;;;;14.57;3.83;;;716.80;1177.60;;;;;;5095444;28;20477;-69
2021/08/17 07:43:37;;;;;;;13.75;4.07;;;717.10;1152.00;;;;;;5095460;28;20032;-69
2021/08/17 07:46:07;;;;;;;9.02;3.17;;;717.40;1126.40;;;;;;5095467;28;20012;-69
2021/08/17 07:48:33;;;;;;;12.93;3.40;;;717.70;1126.40;;;;;;5095183;28;20380;-69
2021/08/17 07:51:01;;;;;;;12.18;2.97;;;742.50;1126.40;;;;;;5093737;28;20032;-69
2021/08/17 07:53:28;;;;;;;4.05;2.88;;;742.70;1100.80;;;;;;5094521;28;20028;-69
2021/08/17 07:56:00;;;;;;;8.93;3.25;;;742.90;1075.20;;;;;;5094611;28;20152;-69
2021/08/17 07:58:26;;;;;;;6.63;2.80;;;743.10;1049.60;;;;;;5094786;28;20028;-68
2021/08/17 08:00:52;;;;;;;8.55;2.95;;;743.30;1049.60;;;;;;5094617;28;20386;-68
2021/08/17 08:03:20;;;;;;;5.85;3.05;;;768.10;1024.00;;;;;;5092053;28;20024;-70
2021/08/17 08:05:50;;;;;;;6.32;3.33;;;768.40;998.40;;;;;;5094123;28;20097;-70
2021/08/17 08:08:17;;;;;;;12.05;2.95;;;768.50;998.40;;;;;;5094433;28;20028;-69
2021/08/17 08:10:44;;;;;;;7.35;2.92;;;768.70;972.80;;;;;;5094588;28;20020;-69
2021/08/17 08:13:11;;;;;;;7.45;3.22;;;768.70;972.80;;;;;;5094394;28;20020;-69
2021/08/17 08:15:42;;;;;;;6.88;2.85;;;793.60;972.80;;;;;;5094835;28;20020;-70
2021/08/17 08:18:14;;;;;;;9.50;3.17;;;793.80;998.40;;;;;;5094859;28;20024;-69
2021/08/17 08:20:46;;;;;;;9.95;3.15;;;794.10;998.40;;;;;;5094855;28;20099;-69
2021/08/17 08:23:18;;;;;;;12.30;3.17;;;794.30;972.80;;;;;;5094750;28;20020;-69
2021/08/17 08:25:49;;;;;;;16.75;4.05;;;794.30;972.80;;;;;;5094886;28;20012;-70
2021/08/17 08:28:24;;;;;;;15.88;3.50;;;794.10;972.80;;;;;;5094575;28;20096;-69
2021/08/17 08:30:55;;;;;;;10.52;3.35;;;793.80;998.40;;;;;;5094531;28;20024;-69
2021/08/17 08:33:27;;;;;;;9.90;3.58;;;793.60;998.40;;;;;;5094555;28;20020;-69
2021/08/17 08:35:59;;;;;;;6.18;3.20;;;768.60;998.40;;;;;;5094542;28;20462;-71
2021/08/17 08:38:30;;;;;;;13.63;3.38;;;768.60;998.40;;;;;;5094431;28;20088;-70
2021/08/17 08:41:02;;;;;;;14.25;3.55;;;768.90;998.40;;;;;;5094618;28;20020;-70
2021/08/17 08:43:34;;;;;;;10.20;3.17;;;793.60;1024.00;;;;;;5094451;28;20024;-71
2021/08/17 08:46:05;;;;;;;10.52;3.17;;;793.90;1024.00;;;;;;5094145;28;20028;-71
2021/08/17 08:48:37;;;;;;;8.88;3.10;;;794.20;998.40;;;;;;5094321;28;20036;-71
2021/08/17 08:51:11;;;;;;;10.23;2.88;;;794.50;972.80;;;;;;5094269;28;20028;-71
2021/08/17 08:53:43;;;;;;;8.75;2.90;;;819.30;947.20;;;;;;5094308;28;20016;-71
2021/08/17 08:56:15;;;;;;;8.70;2.47;;;819.60;921.60;;;;;;5094212;28;20053;-72
2021/08/17 08:58:46;;;;;;;14.63;2.90;;;819.70;921.60;;;;;;5094045;28;20028;-71
2021/08/17 09:01:24;;;;;;;10.25;3.00;;;819.90;921.60;;;;;;5094062;28;20108;-71
2021/08/17 09:03:57;;;;;;;15.82;2.70;;;820.00;921.60;;;;;;5094158;28;20020;-70
2021/08/17 09:06:32;;;;;;;10.48;3.47;;;820.10;896.00;;;;;;5093040;28;20075;-72
2021/08/17 09:09:12;;;;;;;8.27;2.60;;;844.80;921.60;;;;;;5093769;28;20039;-71
2021/08/17 09:11:52;;;;;;;16.98;2.88;;;844.80;921.60;;;;;;5094126;28;20034;-71
2021/08/17 09:14:31;;;;;;;7.53;2.70;;;844.80;921.60;;;;;;5093963;28;20028;-71
2021/08/17 09:17:05;;;;;;;5.05;2.40;;;845.00;921.60;;;;;;5093937;28;20024;-71
2021/08/17 09:19:44;;;;;;;10.95;3.00;;;845.00;896.00;;;;;;5094146;28;20366;-72
2021/08/17 09:22:30;;;;;;;17.73;3.05;;;845.10;896.00;;;;;;5093698;28;20031;-72
2021/08/17 09:25:04;;;;;;;12.82;2.63;;;845.00;896.00;;;;;;5093936;28;20044;-71
2021/08/17 09:27:33;;;;;;;;;;;845.00;870.40;;;;;;5094101;28;20040;-71
2021/08/17 09:30:14;;;;;;;6.05;2.63;;;845.10;870.40;;;;;;5093652;28;19943;-70
2021/08/17 09:32:57;;;;;;;5.68;2.67;;;845.10;896.00;;;;;;5093860;28;20107;-71
2021/08/17 09:35:27;;;;;;;5.97;2.97;;;845.30;896.00;;;;;;5093656;28;20020;-72
2021/08/17 09:38:13;;;;;;;12.65;2.65;;;845.30;870.40;;;;;;5094147;28;20024;-71
2021/08/17 09:40:45;;;;;;;9.93;2.70;;;845.50;896.00;;;;;;5093476;28;20026;-70
2021/08/17 09:43:23;;;;;;;14.10;3.63;;;845.50;870.40;;;;;;5093667;28;20020;-70
2021/08/17 09:46:07;;;;;;;8.50;2.88;;;845.40;896.00;;;;;;5093746;28;20127;-72
2021/08/17 09:48:39;;;;;;;8.80;2.83;;;845.60;896.00;;;;;;5093614;28;20039;-71
2021/08/17 09:51:10;;;;;;;13.32;3.00;;;845.60;896.00;;;;;;5093876;28;20035;-70
2021/08/17 09:53:42;;;;;;;9.52;3.00;;;845.60;896.00;;;;;;5093711;28;20020;-70
2021/08/17 09:56:26;;;;;;;10.38;2.75;;;845.50;870.40;;;;;;5093885;28;20020;-71
2021/08/17 09:58:57;;;;;;;8.88;2.58;;;845.40;896.00;;;;;;5093540;28;20101;-71
2021/08/17 10:01:28;;;;;;;12.27;3.58;;;845.40;896.00;;;;;;5093647;28;20434;-71
2021/08/17 10:04:06;;;;;;;13.27;3.00;;;845.30;896.00;;;;;;5093642;28;20466;-71
2021/08/17 10:06:38;;;;;;;11.02;2.70;;;845.30;896.00;;;;;;5093414;28;20032;-70
2021/08/17 10:09:11;;;;;;;14.23;3.20;;;845.10;921.60;;;;;;5093483;28;20473;-70
2021/08/17 10:11:47;;;;;;;18.40;3.45;;;845.10;921.60;;;;;;5093688;28;20099;-72
2021/08/17 10:14:19;;;;;;;12.55;3.45;;;844.90;921.60;;;;;;5093653;28;20027;-71
2021/08/17 10:16:51;;;;;;;15.25;3.40;;;820.10;896.00;;;;;;5095130;28;20035;-71
2021/08/17 10:19:28;;;;;;;8.00;2.75;;;819.90;921.60;;;;;;5097114;28;20061;-71
2021/08/17 10:22:01;;;;;;;13.20;3.40;;;819.80;921.60;;;;;;5097132;28;20063;-72
2021/08/17 10:24:41;;;;;;;10.48;3.08;;;819.90;921.60;;;;;;5097177;28;20016;-71
2021/08/17 10:27:33;;;;;;;9.25;2.75;;;819.90;921.60;;;;;;5096813;28;20036;-72
2021/08/17 10:30:20;;;;;;;7.45;3.22;;;820.10;921.60;;;;;;5097101;28;20032;-72
2021/08/17 10:33:04;;;;;;;8.90;2.85;;;820.10;921.60;;;;;;5096946;28;20361;-72
2021/08/17 10:35:55;;;;;;;13.32;2.97;;;820.10;896.00;;;;;;5096905;28;20374;-73
2021/08/17 10:38:29;;;;;;;18.38;3.60;;;844.80;921.60;;;;;;5096771;28;20030;-73
2021/08/17 10:40:56;;;;;;;12.77;3.30;;;844.80;947.20;;;;;;5096269;28;20024;-73
2021/08/17 10:43:30;;;;;;;8.32;3.10;;;844.80;947.20;;;;;;5095860;28;20027;-72
2021/08/17 10:46:12;;;;;;;9.73;2.40;;;844.80;921.60;;;;;;5096652;28;20024;-74
2021/08/17 10:51:36;;;;;;;8.38;3.10;;;844.80;921.60;;;;;;5096655;28;20044;-71
2021/08/17 10:54:03;;;;;;;5.40;2.33;;;820.00;896.00;;;;;;5096707;28;20044;-74
2021/08/17 10:56:31;;;;;;;12.43;2.75;;;819.90;870.40;;;;;;5095659;28;20073;-71
2021/08/17 10:58:59;;;;;;;12.48;2.63;;;819.80;896.00;;;;;;5095129;28;20485;-74
2021/08/17 11:01:34;;;;;;;7.93;2.75;;;819.70;896.00;;;;;;5095830;28;20535;-73
2021/08/17 11:04:08;;;;;;;16.83;3.78;;;819.80;896.00;;;;;;5095933;28;20028;-72
2021/08/17 11:06:47;;;;;;;10.10;3.03;;;819.60;896.00;;;;;;5096157;28;20020;-74
2021/08/17 11:09:18;;;;;;;10.40;2.92;;;819.40;896.00;;;;;;5096355;28;20481;-72
2021/08/17 11:12:06;;;;;;;10.38;2.67;;;819.20;896.00;;;;;;5096191;28;20111;-71
2021/08/17 11:14:39;;;;;;;6.43;2.80;;;794.50;921.60;;;;;;5096152;28;20023;-72
2021/08/17 11:17:17;;;;;;;7.60;3.30;;;819.30;921.60;;;;;;5096210;28;20093;-74
2021/08/17 11:19:53;;;;;;;11.10;3.20;;;819.20;921.60;;;;;;5095889;28;20458;-72
2021/08/17 11:22:25;;;;;;;17.23;3.78;;;819.20;921.60;;;;;;5096096;28;20024;-75
2021/08/17 11:25:05;;;;;;;13.48;3.63;;;794.50;921.60;;;;;;5096105;28;20039;-71
2021/08/17 11:27:44;;;;;;;10.82;2.97;;;794.30;947.20;;;;;;5095259;28;20145;-71
2021/08/17 11:30:16;;;;;;;7.00;2.72;;;794.20;947.20;;;;;;5095651;28;20044;-72
2021/08/17 11:32:56;;;;;;;4.70;3.17;;;794.10;947.20;;;;;;5096022;28;20089;-72
2021/08/17 11:35:29;;;;;;;5.70;2.65;;;793.90;972.80;;;;;;5095852;28;20028;-72
2021/08/17 11:38:01;;;;;;;11.73;2.92;;;793.90;972.80;;;;;;5095783;28;20101;-73
2021/08/17 11:40:36;;;;;;;9.88;3.20;;;794.10;972.80;;;;;;5095809;28;20032;-73
2021/08/17 11:43:07;;;;;;;6.32;2.83;;;794.10;972.80;;;;;;5094255;28;20530;-72
2021/08/17 11:45:39;;;;;;;6.32;2.95;;;793.80;972.80;;;;;;5094416;28;20052;-72
2021/08/17 11:48:11;;;;;;;11.35;3.38;;;793.60;998.40;;;;;;5095173;28;20062;-72
2021/08/17 11:50:42;;;;;;;11.07;3.30;;;768.80;972.80;;;;;;5095446;28;20016;-72
2021/08/17 11:53:18;;;;;;;8.50;3.05;;;768.50;972.80;;;;;;5094972;28;20048;-72
2021/08/17 11:55:49;;;;;;;5.13;2.83;;;768.30;998.40;;;;;;5095495;28;20024;-72
2021/08/17 11:58:26;;;;;;;4.05;2.35;;;768.20;998.40;;;;;;5095288;28;20055;-73
2021/08/17 12:00:57;;;;;;;6.65;3.05;;;768.10;1024.00;;;;;;5094076;28;20462;-72
2021/08/17 12:03:29;;;;;;;12.18;3.10;;;768.20;1024.00;;;;;;5110771;28;20173;-72
2021/08/17 12:06:09;;;;;;;5.40;2.60;;;768.20;1024.00;;;;;;5094838;28;20077;-71
2021/08/17 12:08:43;;;;;;;10.20;2.97;;;768.20;998.40;;;;;;5094997;28;20043;-72
2021/08/17 12:11:22;;;;;;;10.60;2.80;;;768.20;998.40;;;;;;5095011;28;20115;-73
2021/08/17 12:13:54;;;;;;;5.05;2.38;;;768.20;1024.00;;;;;;5095193;28;20020;-72
2021/08/17 12:16:25;;;;;;;7.13;2.13;;;768.20;1024.00;;;;;;5095137;28;20036;-70
2021/08/17 12:18:57;;;;;;;5.63;2.65;;;768.30;1024.00;;;;;;5093712;28;20035;-72
2021/08/17 12:21:30;;;;;;;5.82;2.50;;;768.30;1024.00;;;;;;5094564;28;20474;-72
2021/08/17 12:24:06;;;;;;;19.88;3.03;;;768.50;1024.00;;;;;;5094435;28;20027;-72
2021/08/17 12:26:38;;;;;;;6.68;2.38;;;768.40;1024.00;;;;;;5094549;28;20034;-72
2021/08/17 12:29:20;;;;;;;7.07;2.13;;;768.50;1024.00;;;;;;5093075;28;20071;-72
2021/08/17 12:31:54;;;;;;;11.68;2.17;;;768.50;998.40;;;;;;5094779;28;20028;-71
2021/08/17 12:34:27;;;;;;;9.82;2.75;;;768.70;998.40;;;;;;5094701;28;20020;-72
2021/08/17 12:37:01;;;;;;;10.15;2.20;;;768.70;998.40;;;;;;5094812;28;20047;-69
2021/08/17 12:39:33;;;;;;;5.50;2.10;;;768.60;998.40;;;;;;5091720;28;20039;-69
2021/08/17 12:42:17;;;;;;;6.95;2.30;;;768.60;998.40;;;;;;5093944;28;20020;-69
2021/08/17 12:44:49;;;;;;;3.13;1.83;;;768.60;972.80;;;;;;5094176;28;20031;-69
2021/08/17 12:47:28;;;;;;;4.78;2.00;;;768.70;972.80;;;;;;5093517;28;20044;-69
2021/08/17 12:49:54;;;;;;;6.13;2.03;;;768.70;972.80;;;;;;5093937;28;20024;-69